Terminal Aerodrome Forecast
Issued by NWS

Home | Current Version | Previous Version | Text Only | Print | Product List | Glossary On
Versions: 1 2 3 4 5 6 7 8 9 10 11 12 13 14 15 16 17
622
FTUS45 KRIW 301720
TAFBPI
TAF
KBPI 301720Z 3018/0118 VRB06KT P6SM SCT008 BKN050
      TEMPO 3018/3020 6SM -RASN OVC020
     FM302000 VRB11KT P6SM VCSH SCT025 BKN035
     FM010300 16007KT P6SM SCT030 BKN050=

USA.gov is the U.S. government's official web portal to all federal, state and local government web resources and services.